sensor_id;sensor_type;location;lat;lon;timestamp;P1;durP1;ratioP1;P2;durP2;ratioP2
71836;SDS011;59686;51.716;7.016;2024-01-25T00:00:58;21.10;;;6.70;;
71836;SDS011;59686;51.716;7.016;2024-01-25T00:03:24;25.90;;;6.63;;
71836;SDS011;59686;51.716;7.016;2024-01-25T00:05:50;24.40;;;6.07;;
71836;SDS011;59686;51.716;7.016;2024-01-25T00:08:15;26.73;;;5.97;;
71836;SDS011;59686;51.716;7.016;2024-01-25T00:10:41;25.03;;;6.10;;
71836;SDS011;59686;51.716;7.016;2024-01-25T00:13:07;19.70;;;6.40;;
71836;SDS011;59686;51.716;7.016;2024-01-25T00:15:32;21.90;;;6.40;;
71836;SDS011;59686;51.716;7.016;2024-01-25T00:17:58;27.17;;;5.80;;
71836;SDS011;59686;51.716;7.016;2024-01-25T00:20:24;32.63;;;6.57;;
71836;SDS011;59686;51.716;7.016;2024-01-25T00:22:49;25.27;;;5.93;;
71836;SDS011;59686;51.716;7.016;2024-01-25T00:25:17;24.93;;;6.60;;
71836;SDS011;59686;51.716;7.016;2024-01-25T00:27:43;23.80;;;5.90;;
71836;SDS011;59686;51.716;7.016;2024-01-25T00:30:10;26.13;;;5.90;;
71836;SDS011;59686;51.716;7.016;2024-01-25T00:32:35;23.53;;;6.17;;
71836;SDS011;59686;51.716;7.016;2024-01-25T00:35:02;26.50;;;5.73;;
71836;SDS011;59686;51.716;7.016;2024-01-25T00:37:28;28.77;;;6.43;;
71836;SDS011;59686;51.716;7.016;2024-01-25T00:39:53;21.20;;;5.90;;
71836;SDS011;59686;51.716;7.016;2024-01-25T00:42:21;25.03;;;5.80;;
71836;SDS011;59686;51.716;7.016;2024-01-25T00:44:48;25.63;;;6.17;;
71836;SDS011;59686;51.716;7.016;2024-01-25T00:47:14;28.17;;;5.63;;
71836;SDS011;59686;51.716;7.016;2024-01-25T00:49:40;27.47;;;6.73;;
71836;SDS011;59686;51.716;7.016;2024-01-25T00:52:06;25.67;;;5.80;;
71836;SDS011;59686;51.716;7.016;2024-01-25T00:54:32;25.57;;;6.40;;
71836;SDS011;59686;51.716;7.016;2024-01-25T00:56:58;24.70;;;5.60;;
71836;SDS011;59686;51.716;7.016;2024-01-25T00:59:24;21.50;;;5.47;;
71836;SDS011;59686;51.716;7.016;2024-01-25T01:01:51;23.17;;;5.63;;
71836;SDS011;59686;51.716;7.016;2024-01-25T01:04:34;22.10;;;5.47;;
71836;SDS011;59686;51.716;7.016;2024-01-25T01:07:00;21.10;;;5.77;;
71836;SDS011;59686;51.716;7.016;2024-01-25T01:09:26;21.23;;;5.07;;
71836;SDS011;59686;51.716;7.016;2024-01-25T01:11:52;23.23;;;6.07;;
71836;SDS011;59686;51.716;7.016;2024-01-25T01:14:18;27.03;;;5.70;;
71836;SDS011;59686;51.716;7.016;2024-01-25T01:16:43;20.93;;;5.80;;
71836;SDS011;59686;51.716;7.016;2024-01-25T01:22:02;20.97;;;5.60;;
71836;SDS011;59686;51.716;7.016;2024-01-25T01:24:28;25.47;;;5.73;;
71836;SDS011;59686;51.716;7.016;2024-01-25T01:27:03;21.47;;;5.00;;
71836;SDS011;59686;51.716;7.016;2024-01-25T01:29:28;19.73;;;5.00;;
71836;SDS011;59686;51.716;7.016;2024-01-25T01:31:54;23.03;;;5.77;;
71836;SDS011;59686;51.716;7.016;2024-01-25T01:34:19;20.57;;;5.00;;
71836;SDS011;59686;51.716;7.016;2024-01-25T01:39:35;21.23;;;5.63;;
71836;SDS011;59686;51.716;7.016;2024-01-25T01:42:00;20.27;;;5.00;;
71836;SDS011;59686;51.716;7.016;2024-01-25T01:44:26;19.23;;;5.20;;
71836;SDS011;59686;51.716;7.016;2024-01-25T01:46:54;25.33;;;5.53;;
71836;SDS011;59686;51.716;7.016;2024-01-25T01:49:20;22.33;;;5.43;;
71836;SDS011;59686;51.716;7.016;2024-01-25T01:51:45;19.63;;;4.93;;
71836;SDS011;59686;51.716;7.016;2024-01-25T01:54:11;19.10;;;4.93;;
71836;SDS011;59686;51.716;7.016;2024-01-25T01:56:37;23.57;;;5.57;;
71836;SDS011;59686;51.716;7.016;2024-01-25T01:59:08;18.17;;;5.63;;
71836;SDS011;59686;51.716;7.016;2024-01-25T02:01:35;24.23;;;5.50;;
71836;SDS011;59686;51.716;7.016;2024-01-25T02:04:01;23.37;;;5.47;;
71836;SDS011;59686;51.716;7.016;2024-01-25T02:06:26;28.10;;;5.70;;
71836;SDS011;59686;51.716;7.016;2024-01-25T02:08:54;22.03;;;5.27;;
71836;SDS011;59686;51.716;7.016;2024-01-25T02:11:21;20.47;;;5.33;;
71836;SDS011;59686;51.716;7.016;2024-01-25T02:13:46;20.07;;;5.10;;
71836;SDS011;59686;51.716;7.016;2024-01-25T02:16:12;18.77;;;4.90;;
71836;SDS011;59686;51.716;7.016;2024-01-25T02:18:40;18.03;;;4.80;;
71836;SDS011;59686;51.716;7.016;2024-01-25T02:21:06;18.87;;;4.67;;
71836;SDS011;59686;51.716;7.016;2024-01-25T02:23:32;20.97;;;4.70;;
71836;SDS011;59686;51.716;7.016;2024-01-25T02:25:57;19.57;;;4.90;;
71836;SDS011;59686;51.716;7.016;2024-01-25T02:28:23;18.17;;;5.30;;
71836;SDS011;59686;51.716;7.016;2024-01-25T02:30:49;19.60;;;5.00;;
71836;SDS011;59686;51.716;7.016;2024-01-25T02:33:15;24.40;;;5.63;;
71836;SDS011;59686;51.716;7.016;2024-01-25T02:35:40;21.17;;;5.73;;
71836;SDS011;59686;51.716;7.016;2024-01-25T02:38:07;23.07;;;5.67;;
71836;SDS011;59686;51.716;7.016;2024-01-25T02:40:33;22.73;;;4.73;;
71836;SDS011;59686;51.716;7.016;2024-01-25T02:42:58;18.30;;;5.03;;
71836;SDS011;59686;51.716;7.016;2024-01-25T02:45:24;19.20;;;5.07;;
71836;SDS011;59686;51.716;7.016;2024-01-25T02:47:50;19.23;;;4.63;;
71836;SDS011;59686;51.716;7.016;2024-01-25T02:50:15;19.13;;;4.83;;
71836;SDS011;59686;51.716;7.016;2024-01-25T02:52:41;17.37;;;4.73;;
71836;SDS011;59686;51.716;7.016;2024-01-25T02:55:08;19.10;;;4.70;;
71836;SDS011;59686;51.716;7.016;2024-01-25T02:57:34;21.17;;;4.83;;
71836;SDS011;59686;51.716;7.016;2024-01-25T02:59:59;21.30;;;5.53;;
71836;SDS011;59686;51.716;7.016;2024-01-25T03:02:25;21.10;;;4.77;;
71836;SDS011;59686;51.716;7.016;2024-01-25T03:04:51;15.63;;;4.27;;
71836;SDS011;59686;51.716;7.016;2024-01-25T03:07:16;19.20;;;4.87;;
71836;SDS011;59686;51.716;7.016;2024-01-25T03:09:42;18.60;;;4.20;;
71836;SDS011;59686;51.716;7.016;2024-01-25T03:12:08;20.07;;;4.83;;
71836;SDS011;59686;51.716;7.016;2024-01-25T03:14:33;14.40;;;4.40;;
71836;SDS011;59686;51.716;7.016;2024-01-25T03:16:59;14.60;;;4.80;;
71836;SDS011;59686;51.716;7.016;2024-01-25T03:19:27;15.50;;;4.90;;
71836;SDS011;59686;51.716;7.016;2024-01-25T03:21:53;16.33;;;5.50;;
71836;SDS011;59686;51.716;7.016;2024-01-25T03:24:19;21.60;;;5.80;;
71836;SDS011;59686;51.716;7.016;2024-01-25T03:26:46;18.73;;;5.27;;
71836;SDS011;59686;51.716;7.016;2024-01-25T03:29:11;19.13;;;4.60;;
71836;SDS011;59686;51.716;7.016;2024-01-25T03:31:37;20.27;;;4.57;;
71836;SDS011;59686;51.716;7.016;2024-01-25T03:34:03;25.27;;;5.20;;
71836;SDS011;59686;51.716;7.016;2024-01-25T03:36:32;17.10;;;4.83;;
71836;SDS011;59686;51.716;7.016;2024-01-25T03:38:58;20.57;;;4.60;;
71836;SDS011;59686;51.716;7.016;2024-01-25T03:41:23;15.13;;;4.83;;
71836;SDS011;59686;51.716;7.016;2024-01-25T03:43:49;19.10;;;3.97;;
71836;SDS011;59686;51.716;7.016;2024-01-25T03:46:15;18.97;;;4.93;;
71836;SDS011;59686;51.716;7.016;2024-01-25T03:48:41;15.43;;;4.60;;
71836;SDS011;59686;51.716;7.016;2024-01-25T03:51:07;17.30;;;4.47;;
71836;SDS011;59686;51.716;7.016;2024-01-25T03:53:34;17.93;;;4.73;;
71836;SDS011;59686;51.716;7.016;2024-01-25T03:56:00;19.97;;;4.33;;
71836;SDS011;59686;51.716;7.016;2024-01-25T03:58:25;15.30;;;4.63;;
71836;SDS011;59686;51.716;7.016;2024-01-25T04:00:51;16.57;;;4.67;;
71836;SDS011;59686;51.716;7.016;2024-01-25T04:03:17;16.23;;;4.33;;
71836;SDS011;59686;51.716;7.016;2024-01-25T04:05:43;18.40;;;4.73;;
71836;SDS011;59686;51.716;7.016;2024-01-25T04:08:08;17.47;;;4.47;;
71836;SDS011;59686;51.716;7.016;2024-01-25T04:10:35;19.30;;;4.50;;
71836;SDS011;59686;51.716;7.016;2024-01-25T04:13:00;17.47;;;3.93;;
71836;SDS011;59686;51.716;7.016;2024-01-25T04:15:26;19.03;;;5.63;;
71836;SDS011;59686;51.716;7.016;2024-01-25T04:17:52;16.83;;;4.60;;
71836;SDS011;59686;51.716;7.016;2024-01-25T04:20:18;20.23;;;4.77;;
71836;SDS011;59686;51.716;7.016;2024-01-25T04:22:44;23.50;;;6.23;;
71836;SDS011;59686;51.716;7.016;2024-01-25T04:25:10;17.83;;;5.07;;
71836;SDS011;59686;51.716;7.016;2024-01-25T04:27:39;15.87;;;5.10;;
71836;SDS011;59686;51.716;7.016;2024-01-25T04:30:05;16.57;;;4.53;;
71836;SDS011;59686;51.716;7.016;2024-01-25T04:32:32;22.93;;;5.47;;
71836;SDS011;59686;51.716;7.016;2024-01-25T04:34:58;17.63;;;4.63;;
71836;SDS011;59686;51.716;7.016;2024-01-25T04:37:24;18.13;;;4.57;;
71836;SDS011;59686;51.716;7.016;2024-01-25T04:39:49;15.80;;;4.23;;
71836;SDS011;59686;51.716;7.016;2024-01-25T04:42:15;16.20;;;4.73;;
71836;SDS011;59686;51.716;7.016;2024-01-25T04:44:41;15.03;;;4.73;;
71836;SDS011;59686;51.716;7.016;2024-01-25T04:47:06;16.73;;;4.93;;
71836;SDS011;59686;51.716;7.016;2024-01-25T04:49:33;20.83;;;5.33;;
71836;SDS011;59686;51.716;7.016;2024-01-25T04:51:58;18.00;;;4.43;;
71836;SDS011;59686;51.716;7.016;2024-01-25T04:56:56;21.70;;;4.40;;
71836;SDS011;59686;51.716;7.016;2024-01-25T04:59:21;19.80;;;3.93;;
71836;SDS011;59686;51.716;7.016;2024-01-25T05:01:47;17.43;;;4.43;;
71836;SDS011;59686;51.716;7.016;2024-01-25T05:04:13;19.97;;;4.47;;
71836;SDS011;59686;51.716;7.016;2024-01-25T05:06:38;15.50;;;5.00;;
71836;SDS011;59686;51.716;7.016;2024-01-25T05:09:04;15.77;;;4.20;;
71836;SDS011;59686;51.716;7.016;2024-01-25T05:11:30;13.73;;;4.23;;
71836;SDS011;59686;51.716;7.016;2024-01-25T05:13:55;15.80;;;4.20;;
71836;SDS011;59686;51.716;7.016;2024-01-25T05:16:21;13.70;;;4.20;;
71836;SDS011;59686;51.716;7.016;2024-01-25T05:18:47;17.33;;;4.47;;
71836;SDS011;59686;51.716;7.016;2024-01-25T05:21:12;12.83;;;4.13;;
71836;SDS011;59686;51.716;7.016;2024-01-25T05:23:38;14.17;;;4.70;;
71836;SDS011;59686;51.716;7.016;2024-01-25T05:26:05;15.67;;;4.63;;
71836;SDS011;59686;51.716;7.016;2024-01-25T05:28:31;19.63;;;5.13;;
71836;SDS011;59686;51.716;7.016;2024-01-25T05:30:57;16.23;;;4.90;;
71836;SDS011;59686;51.716;7.016;2024-01-25T05:33:22;18.23;;;4.30;;
71836;SDS011;59686;51.716;7.016;2024-01-25T05:35:48;20.23;;;4.47;;
71836;SDS011;59686;51.716;7.016;2024-01-25T05:38:13;14.43;;;4.20;;
71836;SDS011;59686;51.716;7.016;2024-01-25T05:40:39;15.93;;;3.97;;
71836;SDS011;59686;51.716;7.016;2024-01-25T05:43:05;16.20;;;4.10;;
71836;SDS011;59686;51.716;7.016;2024-01-25T05:45:32;18.57;;;5.57;;
71836;SDS011;59686;51.716;7.016;2024-01-25T05:47:58;13.47;;;3.90;;
71836;SDS011;59686;51.716;7.016;2024-01-25T05:50:24;16.50;;;4.80;;
71836;SDS011;59686;51.716;7.016;2024-01-25T05:52:50;18.00;;;4.73;;
71836;SDS011;59686;51.716;7.016;2024-01-25T05:55:15;17.73;;;4.97;;
71836;SDS011;59686;51.716;7.016;2024-01-25T05:57:41;12.37;;;4.07;;
71836;SDS011;59686;51.716;7.016;2024-01-25T06:00:09;15.97;;;5.03;;
71836;SDS011;59686;51.716;7.016;2024-01-25T06:02:37;16.33;;;4.13;;
71836;SDS011;59686;51.716;7.016;2024-01-25T06:05:03;14.43;;;4.37;;
71836;SDS011;59686;51.716;7.016;2024-01-25T06:07:29;18.10;;;4.40;;
71836;SDS011;59686;51.716;7.016;2024-01-25T06:09:54;16.73;;;4.50;;
71836;SDS011;59686;51.716;7.016;2024-01-25T06:12:20;14.37;;;4.10;;
71836;SDS011;59686;51.716;7.016;2024-01-25T06:14:46;14.77;;;4.60;;
71836;SDS011;59686;51.716;7.016;2024-01-25T06:17:11;13.90;;;4.07;;
71836;SDS011;59686;51.716;7.016;2024-01-25T06:19:37;17.53;;;4.27;;
71836;SDS011;59686;51.716;7.016;2024-01-25T06:22:03;15.30;;;4.37;;
71836;SDS011;59686;51.716;7.016;2024-01-25T06:24:28;15.43;;;4.80;;
71836;SDS011;59686;51.716;7.016;2024-01-25T06:26:54;15.53;;;4.43;;
71836;SDS011;59686;51.716;7.016;2024-01-25T06:29:20;13.03;;;4.13;;
71836;SDS011;59686;51.716;7.016;2024-01-25T06:31:45;13.40;;;4.03;;
71836;SDS011;59686;51.716;7.016;2024-01-25T06:34:11;12.57;;;4.63;;
71836;SDS011;59686;51.716;7.016;2024-01-25T06:36:37;15.60;;;4.23;;
71836;SDS011;59686;51.716;7.016;2024-01-25T06:39:03;11.27;;;4.27;;
71836;SDS011;59686;51.716;7.016;2024-01-25T06:41:31;16.27;;;4.37;;
71836;SDS011;59686;51.716;7.016;2024-01-25T06:43:58;15.43;;;4.60;;
71836;SDS011;59686;51.716;7.016;2024-01-25T06:46:24;14.77;;;4.17;;
71836;SDS011;59686;51.716;7.016;2024-01-25T06:48:50;15.37;;;4.83;;
71836;SDS011;59686;51.716;7.016;2024-01-25T06:51:16;12.73;;;4.43;;
71836;SDS011;59686;51.716;7.016;2024-01-25T06:53:42;19.93;;;4.60;;
71836;SDS011;59686;51.716;7.016;2024-01-25T06:56:08;16.43;;;4.87;;
71836;SDS011;59686;51.716;7.016;2024-01-25T06:58:33;15.20;;;4.53;;
71836;SDS011;59686;51.716;7.016;2024-01-25T07:00:59;14.17;;;4.23;;
71836;SDS011;59686;51.716;7.016;2024-01-25T07:03:25;15.60;;;4.77;;
71836;SDS011;59686;51.716;7.016;2024-01-25T07:05:51;14.43;;;4.43;;
71836;SDS011;59686;51.716;7.016;2024-01-25T07:08:17;14.47;;;5.20;;
71836;SDS011;59686;51.716;7.016;2024-01-25T07:10:44;19.07;;;4.73;;
71836;SDS011;59686;51.716;7.016;2024-01-25T07:13:10;14.57;;;4.27;;
71836;SDS011;59686;51.716;7.016;2024-01-25T07:18:06;16.37;;;4.70;;
71836;SDS011;59686;51.716;7.016;2024-01-25T07:20:32;16.67;;;4.73;;
71836;SDS011;59686;51.716;7.016;2024-01-25T07:22:57;15.73;;;5.00;;
71836;SDS011;59686;51.716;7.016;2024-01-25T07:25:23;19.13;;;5.73;;
71836;SDS011;59686;51.716;7.016;2024-01-25T07:27:49;14.50;;;4.60;;
71836;SDS011;59686;51.716;7.016;2024-01-25T07:30:15;19.53;;;5.13;;
71836;SDS011;59686;51.716;7.016;2024-01-25T07:32:49;17.80;;;4.93;;
71836;SDS011;59686;51.716;7.016;2024-01-25T07:35:15;15.60;;;5.10;;
71836;SDS011;59686;51.716;7.016;2024-01-25T07:37:41;18.63;;;5.00;;
71836;SDS011;59686;51.716;7.016;2024-01-25T07:40:10;15.50;;;4.53;;
71836;SDS011;59686;51.716;7.016;2024-01-25T07:42:36;15.13;;;4.50;;
71836;SDS011;59686;51.716;7.016;2024-01-25T07:45:01;18.70;;;4.60;;
71836;SDS011;59686;51.716;7.016;2024-01-25T07:47:27;15.97;;;4.93;;
71836;SDS011;59686;51.716;7.016;2024-01-25T07:49:54;14.60;;;4.70;;
71836;SDS011;59686;51.716;7.016;2024-01-25T07:52:20;15.03;;;5.33;;
71836;SDS011;59686;51.716;7.016;2024-01-25T07:54:45;14.47;;;4.13;;
71836;SDS011;59686;51.716;7.016;2024-01-25T07:57:11;18.80;;;5.10;;
71836;SDS011;59686;51.716;7.016;2024-01-25T07:59:37;18.43;;;4.90;;
71836;SDS011;59686;51.716;7.016;2024-01-25T08:02:02;20.23;;;5.47;;
71836;SDS011;59686;51.716;7.016;2024-01-25T08:04:34;15.33;;;4.93;;
71836;SDS011;59686;51.716;7.016;2024-01-25T08:07:00;17.83;;;4.73;;
71836;SDS011;59686;51.716;7.016;2024-01-25T08:09:26;16.87;;;4.43;;
71836;SDS011;59686;51.716;7.016;2024-01-25T08:11:51;17.53;;;5.53;;
71836;SDS011;59686;51.716;7.016;2024-01-25T08:14:17;18.27;;;5.00;;
71836;SDS011;59686;51.716;7.016;2024-01-25T08:16:43;16.33;;;5.03;;
71836;SDS011;59686;51.716;7.016;2024-01-25T08:19:09;18.77;;;5.10;;
71836;SDS011;59686;51.716;7.016;2024-01-25T08:21:35;14.33;;;4.80;;
71836;SDS011;59686;51.716;7.016;2024-01-25T08:24:01;16.93;;;4.57;;
71836;SDS011;59686;51.716;7.016;2024-01-25T08:26:27;17.60;;;5.30;;
71836;SDS011;59686;51.716;7.016;2024-01-25T08:28:52;18.97;;;6.10;;
71836;SDS011;59686;51.716;7.016;2024-01-25T08:31:18;19.40;;;5.23;;
71836;SDS011;59686;51.716;7.016;2024-01-25T08:33:44;16.83;;;5.03;;
71836;SDS011;59686;51.716;7.016;2024-01-25T08:36:12;18.63;;;4.97;;
71836;SDS011;59686;51.716;7.016;2024-01-25T08:38:41;17.67;;;4.70;;
71836;SDS011;59686;51.716;7.016;2024-01-25T08:41:07;18.40;;;5.53;;
71836;SDS011;59686;51.716;7.016;2024-01-25T08:43:34;17.17;;;4.50;;
71836;SDS011;59686;51.716;7.016;2024-01-25T08:46:00;19.03;;;5.07;;
71836;SDS011;59686;51.716;7.016;2024-01-25T08:48:27;12.63;;;4.37;;
71836;SDS011;59686;51.716;7.016;2024-01-25T08:50:52;19.03;;;5.30;;
71836;SDS011;59686;51.716;7.016;2024-01-25T08:53:19;16.50;;;4.73;;
71836;SDS011;59686;51.716;7.016;2024-01-25T08:55:52;13.20;;;4.03;;
71836;SDS011;59686;51.716;7.016;2024-01-25T08:58:18;20.03;;;4.63;;
71836;SDS011;59686;51.716;7.016;2024-01-25T09:00:45;18.77;;;5.00;;
71836;SDS011;59686;51.716;7.016;2024-01-25T09:03:10;16.73;;;4.93;;
71836;SDS011;59686;51.716;7.016;2024-01-25T09:05:36;17.90;;;5.30;;
71836;SDS011;59686;51.716;7.016;2024-01-25T09:08:05;16.67;;;5.37;;
71836;SDS011;59686;51.716;7.016;2024-01-25T09:10:32;15.77;;;5.30;;
71836;SDS011;59686;51.716;7.016;2024-01-25T09:12:58;18.10;;;4.87;;
71836;SDS011;59686;51.716;7.016;2024-01-25T09:15:23;18.90;;;5.13;;
71836;SDS011;59686;51.716;7.016;2024-01-25T09:17:49;19.80;;;5.63;;
71836;SDS011;59686;51.716;7.016;2024-01-25T09:20:15;15.83;;;5.80;;
71836;SDS011;59686;51.716;7.016;2024-01-25T09:22:40;17.90;;;5.23;;
71836;SDS011;59686;51.716;7.016;2024-01-25T09:25:06;20.53;;;5.70;;
71836;SDS011;59686;51.716;7.016;2024-01-25T09:27:32;19.97;;;5.50;;
71836;SDS011;59686;51.716;7.016;2024-01-25T09:29:58;17.13;;;5.20;;
71836;SDS011;59686;51.716;7.016;2024-01-25T09:32:24;22.07;;;5.90;;
71836;SDS011;59686;51.716;7.016;2024-01-25T09:34:49;18.87;;;6.10;;
71836;SDS011;59686;51.716;7.016;2024-01-25T09:37:15;18.13;;;4.83;;
71836;SDS011;59686;51.716;7.016;2024-01-25T09:39:42;24.37;;;5.90;;
71836;SDS011;59686;51.716;7.016;2024-01-25T09:42:08;20.93;;;6.23;;
71836;SDS011;59686;51.716;7.016;2024-01-25T09:44:35;18.27;;;5.50;;
71836;SDS011;59686;51.716;7.016;2024-01-25T09:47:03;24.20;;;6.17;;
71836;SDS011;59686;51.716;7.016;2024-01-25T09:49:32;19.30;;;5.50;;
71836;SDS011;59686;51.716;7.016;2024-01-25T09:51:58;20.53;;;5.33;;
71836;SDS011;59686;51.716;7.016;2024-01-25T09:54:30;17.27;;;5.50;;
71836;SDS011;59686;51.716;7.016;2024-01-25T09:57:03;17.27;;;5.97;;
71836;SDS011;59686;51.716;7.016;2024-01-25T09:59:33;22.97;;;5.90;;
71836;SDS011;59686;51.716;7.016;2024-01-25T10:01:59;20.80;;;5.97;;
71836;SDS011;59686;51.716;7.016;2024-01-25T10:04:26;19.90;;;5.83;;
71836;SDS011;59686;51.716;7.016;2024-01-25T10:06:55;25.67;;;7.40;;
71836;SDS011;59686;51.716;7.016;2024-01-25T10:09:21;20.03;;;6.33;;
71836;SDS011;59686;51.716;7.016;2024-01-25T10:11:48;24.00;;;6.00;;
71836;SDS011;59686;51.716;7.016;2024-01-25T10:14:13;20.80;;;5.97;;
71836;SDS011;59686;51.716;7.016;2024-01-25T10:16:39;16.67;;;5.57;;
71836;SDS011;59686;51.716;7.016;2024-01-25T10:19:08;19.87;;;6.33;;
71836;SDS011;59686;51.716;7.016;2024-01-25T10:21:35;22.93;;;6.17;;
71836;SDS011;59686;51.716;7.016;2024-01-25T10:24:00;23.70;;;6.03;;
71836;SDS011;59686;51.716;7.016;2024-01-25T10:26:27;20.90;;;5.67;;
71836;SDS011;59686;51.716;7.016;2024-01-25T10:28:55;20.67;;;6.20;;
71836;SDS011;59686;51.716;7.016;2024-01-25T10:31:24;23.97;;;6.37;;
71836;SDS011;59686;51.716;7.016;2024-01-25T10:33:53;27.40;;;7.10;;
71836;SDS011;59686;51.716;7.016;2024-01-25T10:36:21;20.77;;;5.77;;
71836;SDS011;59686;51.716;7.016;2024-01-25T10:38:50;20.63;;;5.87;;
71836;SDS011;59686;51.716;7.016;2024-01-25T10:41:18;31.00;;;7.10;;
71836;SDS011;59686;51.716;7.016;2024-01-25T10:43:45;20.63;;;6.60;;
71836;SDS011;59686;51.716;7.016;2024-01-25T10:46:11;18.90;;;5.57;;
71836;SDS011;59686;51.716;7.016;2024-01-25T10:48:37;29.53;;;6.70;;
71836;SDS011;59686;51.716;7.016;2024-01-25T10:51:03;18.40;;;6.00;;
71836;SDS011;59686;51.716;7.016;2024-01-25T10:53:31;20.53;;;5.93;;
71836;SDS011;59686;51.716;7.016;2024-01-25T10:55:59;17.20;;;5.60;;
71836;SDS011;59686;51.716;7.016;2024-01-25T10:58:30;25.43;;;6.00;;
71836;SDS011;59686;51.716;7.016;2024-01-25T11:00:59;20.73;;;5.63;;
71836;SDS011;59686;51.716;7.016;2024-01-25T11:03:26;25.53;;;6.57;;
71836;SDS011;59686;51.716;7.016;2024-01-25T11:05:54;13.40;;;5.10;;
71836;SDS011;59686;51.716;7.016;2024-01-25T11:08:21;24.07;;;6.10;;
71836;SDS011;59686;51.716;7.016;2024-01-25T11:10:48;19.63;;;6.10;;
71836;SDS011;59686;51.716;7.016;2024-01-25T11:13:16;21.50;;;5.60;;
71836;SDS011;59686;51.716;7.016;2024-01-25T11:15:41;20.80;;;5.80;;
71836;SDS011;59686;51.716;7.016;2024-01-25T11:18:07;22.90;;;5.90;;
71836;SDS011;59686;51.716;7.016;2024-01-25T11:20:34;21.83;;;5.63;;
71836;SDS011;59686;51.716;7.016;2024-01-25T11:25:31;19.90;;;6.10;;
71836;SDS011;59686;51.716;7.016;2024-01-25T11:27:58;20.50;;;6.00;;
71836;SDS011;59686;51.716;7.016;2024-01-25T11:30:33;23.07;;;6.57;;
71836;SDS011;59686;51.716;7.016;2024-01-25T11:33:00;22.50;;;5.80;;
71836;SDS011;59686;51.716;7.016;2024-01-25T11:35:26;28.70;;;7.20;;
71836;SDS011;59686;51.716;7.016;2024-01-25T11:37:52;17.70;;;6.03;;
71836;SDS011;59686;51.716;7.016;2024-01-25T11:40:18;21.40;;;6.43;;
71836;SDS011;59686;51.716;7.016;2024-01-25T11:42:47;22.70;;;6.03;;
71836;SDS011;59686;51.716;7.016;2024-01-25T11:45:14;27.73;;;7.43;;
71836;SDS011;59686;51.716;7.016;2024-01-25T11:47:40;27.10;;;6.87;;
71836;SDS011;59686;51.716;7.016;2024-01-25T11:50:08;21.30;;;6.23;;
71836;SDS011;59686;51.716;7.016;2024-01-25T11:52:35;17.87;;;5.40;;
71836;SDS011;59686;51.716;7.016;2024-01-25T11:55:05;20.07;;;5.30;;
71836;SDS011;59686;51.716;7.016;2024-01-25T11:57:32;20.70;;;6.27;;
71836;SDS011;59686;51.716;7.016;2024-01-25T12:00:01;23.63;;;6.43;;
71836;SDS011;59686;51.716;7.016;2024-01-25T12:02:33;28.27;;;6.47;;
71836;SDS011;59686;51.716;7.016;2024-01-25T12:05:01;21.70;;;6.23;;
71836;SDS011;59686;51.716;7.016;2024-01-25T12:07:29;19.20;;;6.90;;
71836;SDS011;59686;51.716;7.016;2024-01-25T12:10:03;20.93;;;5.97;;
71836;SDS011;59686;51.716;7.016;2024-01-25T12:12:29;18.23;;;5.73;;
71836;SDS011;59686;51.716;7.016;2024-01-25T12:15:03;25.17;;;6.47;;
71836;SDS011;59686;51.716;7.016;2024-01-25T12:17:30;20.37;;;6.20;;
71836;SDS011;59686;51.716;7.016;2024-01-25T12:19:57;18.70;;;6.03;;
71836;SDS011;59686;51.716;7.016;2024-01-25T12:22:23;22.63;;;6.73;;
71836;SDS011;59686;51.716;7.016;2024-01-25T12:24:58;20.87;;;6.37;;
71836;SDS011;59686;51.716;7.016;2024-01-25T12:27:25;19.90;;;5.47;;
71836;SDS011;59686;51.716;7.016;2024-01-25T12:29:52;23.03;;;6.30;;
71836;SDS011;59686;51.716;7.016;2024-01-25T12:32:21;25.23;;;6.17;;
71836;SDS011;59686;51.716;7.016;2024-01-25T12:34:57;19.60;;;5.70;;
71836;SDS011;59686;51.716;7.016;2024-01-25T12:37:23;25.57;;;6.67;;
71836;SDS011;59686;51.716;7.016;2024-01-25T12:39:52;22.00;;;6.50;;
71836;SDS011;59686;51.716;7.016;2024-01-25T12:42:19;28.60;;;6.73;;
71836;SDS011;59686;51.716;7.016;2024-01-25T12:44:48;17.33;;;6.03;;
71836;SDS011;59686;51.716;7.016;2024-01-25T12:47:19;22.13;;;6.23;;
71836;SDS011;59686;51.716;7.016;2024-01-25T12:49:44;24.03;;;5.57;;
71836;SDS011;59686;51.716;7.016;2024-01-25T12:52:11;24.27;;;6.43;;
71836;SDS011;59686;51.716;7.016;2024-01-25T12:54:38;21.63;;;6.67;;
71836;SDS011;59686;51.716;7.016;2024-01-25T12:57:04;26.00;;;6.80;;
71836;SDS011;59686;51.716;7.016;2024-01-25T12:59:31;20.43;;;6.60;;
71836;SDS011;59686;51.716;7.016;2024-01-25T13:02:00;22.30;;;5.93;;
71836;SDS011;59686;51.716;7.016;2024-01-25T13:04:26;21.57;;;6.17;;
71836;SDS011;59686;51.716;7.016;2024-01-25T13:06:52;20.03;;;6.03;;
71836;SDS011;59686;51.716;7.016;2024-01-25T13:09:22;19.30;;;6.37;;
71836;SDS011;59686;51.716;7.016;2024-01-25T13:11:48;21.27;;;6.23;;
71836;SDS011;59686;51.716;7.016;2024-01-25T13:14:14;23.10;;;6.73;;
71836;SDS011;59686;51.716;7.016;2024-01-25T13:16:40;24.13;;;6.90;;
71836;SDS011;59686;51.716;7.016;2024-01-25T13:19:05;25.10;;;6.37;;
71836;SDS011;59686;51.716;7.016;2024-01-25T13:21:31;20.10;;;6.43;;
71836;SDS011;59686;51.716;7.016;2024-01-25T13:24:01;22.60;;;6.90;;
71836;SDS011;59686;51.716;7.016;2024-01-25T13:26:26;23.83;;;6.77;;
71836;SDS011;59686;51.716;7.016;2024-01-25T13:28:52;25.53;;;7.63;;
71836;SDS011;59686;51.716;7.016;2024-01-25T13:31:18;26.37;;;7.73;;
71836;SDS011;59686;51.716;7.016;2024-01-25T13:33:43;20.43;;;7.37;;
71836;SDS011;59686;51.716;7.016;2024-01-25T13:36:12;23.77;;;7.63;;
71836;SDS011;59686;51.716;7.016;2024-01-25T13:38:42;28.37;;;8.27;;
71836;SDS011;59686;51.716;7.016;2024-01-25T13:41:07;25.30;;;7.50;;
71836;SDS011;59686;51.716;7.016;2024-01-25T13:43:33;23.63;;;7.90;;
71836;SDS011;59686;51.716;7.016;2024-01-25T13:45:59;23.40;;;7.93;;
71836;SDS011;59686;51.716;7.016;2024-01-25T13:48:24;28.23;;;8.83;;
71836;SDS011;59686;51.716;7.016;2024-01-25T13:50:50;18.37;;;7.60;;
71836;SDS011;59686;51.716;7.016;2024-01-25T13:53:16;22.97;;;7.80;;
71836;SDS011;59686;51.716;7.016;2024-01-25T13:55:42;26.57;;;8.60;;
71836;SDS011;59686;51.716;7.016;2024-01-25T13:58:08;25.60;;;8.67;;
71836;SDS011;59686;51.716;7.016;2024-01-25T14:00:34;25.20;;;8.13;;
71836;SDS011;59686;51.716;7.016;2024-01-25T14:03:02;21.47;;;7.87;;
71836;SDS011;59686;51.716;7.016;2024-01-25T14:05:28;20.07;;;8.53;;
71836;SDS011;59686;51.716;7.016;2024-01-25T14:07:53;27.47;;;8.33;;
71836;SDS011;59686;51.716;7.016;2024-01-25T14:10:19;26.57;;;8.27;;
71836;SDS011;59686;51.716;7.016;2024-01-25T14:12:45;24.07;;;8.97;;
71836;SDS011;59686;51.716;7.016;2024-01-25T14:15:11;25.23;;;9.03;;
71836;SDS011;59686;51.716;7.016;2024-01-25T14:17:37;26.17;;;9.00;;
71836;SDS011;59686;51.716;7.016;2024-01-25T14:20:03;24.13;;;9.07;;
71836;SDS011;59686;51.716;7.016;2024-01-25T14:22:30;28.63;;;9.20;;
71836;SDS011;59686;51.716;7.016;2024-01-25T14:24:55;26.87;;;9.30;;
71836;SDS011;59686;51.716;7.016;2024-01-25T14:27:21;27.30;;;9.13;;
71836;SDS011;59686;51.716;7.016;2024-01-25T14:29:48;22.70;;;9.60;;
71836;SDS011;59686;51.716;7.016;2024-01-25T14:32:14;27.37;;;10.30;;
71836;SDS011;59686;51.716;7.016;2024-01-25T14:34:39;28.07;;;10.73;;
71836;SDS011;59686;51.716;7.016;2024-01-25T14:37:05;31.47;;;10.00;;
71836;SDS011;59686;51.716;7.016;2024-01-25T14:39:31;27.67;;;10.80;;
71836;SDS011;59686;51.716;7.016;2024-01-25T14:41:57;32.77;;;11.43;;